Bellvue, Colorado
Current Conditions -  °F | °C
As of 9:55 AM on Thursday 30 Oct 2014 (Local Time) from KFNL Reporting Station
Clear Clear  
Wind Chill: 52°   Ceiling: Unl
Heat Index: 52°   Visibility: 10mi
Dew Point: 28°   Wind: 7mph
Humidity: 41%   Direction: 180°S
Pressure: 30.39"   Gusts: NA
Location:  40.63°N, 105.17°W
Report Text: KFNL 301555Z AUTO 18006KT 10SM CLR 11/M02 A3039 RMK AO1
Loading
Personal Weather Stations






























Interactive Weather Map
Tropical Storm Tracking
New forecast layout! Learn more

10-Day Weather Forecast

Advertisements
Track Severe Weather on mobile